createdAt,value
2022-10-14T00:01:21.655Z,12.53
2022-10-14T00:03:50.593Z,14.40
2022-10-14T00:06:24.574Z,13.43
2022-10-14T00:08:52.804Z,15.53
2022-10-14T00:11:22.500Z,11.30
2022-10-14T00:13:51.238Z,12.80
2022-10-14T00:16:21.033Z,10.80
2022-10-14T00:18:49.386Z,12.70
2022-10-14T00:21:17.698Z,15.20
2022-10-14T00:23:49.560Z,14.60
2022-10-14T00:26:20.157Z,14.50
2022-10-14T00:28:48.758Z,16.00
2022-10-14T00:31:17.305Z,13.10
2022-10-14T00:33:48.510Z,13.00
2022-10-14T00:36:18.389Z,14.20
2022-10-14T00:38:46.694Z,12.43
2022-10-14T00:41:20.806Z,17.40
2022-10-14T00:43:55.740Z,12.00
2022-10-14T00:46:23.928Z,12.47
2022-10-14T00:48:57.908Z,16.27
2022-10-14T00:51:28.727Z,13.93
2022-10-14T00:53:57.011Z,13.03
2022-10-14T00:56:30.362Z,13.50
2022-10-14T00:58:59.109Z,12.10
2022-10-14T01:01:26.964Z,14.00
2022-10-14T01:03:55.002Z,16.67
2022-10-14T01:06:41.690Z,15.03
2022-10-14T01:09:20.113Z,14.70
2022-10-14T01:12:27.486Z,15.20
2022-10-14T01:14:59.725Z,14.60
2022-10-14T01:17:37.394Z,14.17
2022-10-14T01:20:30.058Z,15.77
2022-10-14T01:23:14.139Z,17.23
2022-10-14T01:25:56.215Z,17.00
2022-10-14T01:28:34.207Z,20.67
2022-10-14T01:31:05.992Z,15.50
2022-10-14T01:33:38.035Z,15.80
2022-10-14T01:36:16.272Z,21.97
2022-10-14T01:38:47.480Z,15.40
2022-10-14T01:41:20.764Z,15.00
2022-10-14T01:43:51.231Z,17.50
2022-10-14T01:46:25.021Z,18.63
2022-10-14T01:49:00.224Z,18.17
2022-10-14T01:51:35.675Z,14.00
2022-10-14T01:54:09.550Z,15.00
2022-10-14T01:56:40.740Z,12.73
2022-10-14T01:59:15.122Z,26.60
2022-10-14T02:01:44.508Z,16.43
2022-10-14T02:04:17.962Z,17.40
2022-10-14T02:06:51.859Z,26.30
2022-10-14T02:09:25.683Z,16.20
2022-10-14T02:12:06.648Z,14.27
2022-10-14T02:14:40.762Z,16.37
2022-10-14T02:17:15.110Z,21.20
2022-10-14T02:19:49.419Z,16.23
2022-10-14T02:22:29.093Z,14.67
2022-10-14T02:25:01.007Z,13.63
2022-10-14T02:27:32.702Z,13.60
2022-10-14T02:30:01.615Z,17.60
2022-10-14T02:32:32.651Z,12.90
2022-10-14T02:35:02.047Z,15.50
2022-10-14T02:37:30.704Z,14.63
2022-10-14T02:40:06.093Z,13.20
2022-10-14T02:42:34.333Z,13.40
2022-10-14T02:45:06.926Z,18.43
2022-10-14T02:47:36.226Z,12.30
2022-10-14T02:50:04.312Z,12.63
2022-10-14T02:52:32.240Z,13.70
2022-10-14T02:55:00.061Z,16.20
2022-10-14T02:57:28.062Z,13.40
2022-10-14T02:59:58.159Z,12.43
2022-10-14T03:02:28.482Z,14.87
2022-10-14T03:04:59.536Z,14.50
2022-10-14T03:07:27.488Z,12.10
2022-10-14T03:09:58.247Z,15.20
2022-10-14T03:12:26.622Z,16.03
2022-10-14T03:14:56.887Z,16.30
2022-10-14T03:17:26.650Z,18.73
2022-10-14T03:20:00.911Z,16.97
2022-10-14T03:22:29.038Z,19.90
2022-10-14T03:24:57.880Z,15.47
2022-10-14T03:27:40.125Z,11.93
2022-10-14T03:30:12.845Z,17.10
2022-10-14T03:32:52.660Z,16.20
2022-10-14T03:35:31.678Z,14.20
2022-10-14T03:38:02.974Z,14.07
2022-10-14T03:40:34.346Z,14.87
2022-10-14T03:43:08.977Z,17.93
2022-10-14T03:45:48.077Z,17.80
2022-10-14T03:48:19.147Z,18.13
2022-10-14T03:50:49.269Z,17.83
2022-10-14T03:53:20.118Z,17.77
2022-10-14T03:55:49.195Z,19.47
2022-10-14T03:58:17.122Z,17.33
2022-10-14T04:00:50.817Z,16.40
2022-10-14T04:03:41.831Z,17.50
2022-10-14T04:06:11.112Z,13.37
2022-10-14T04:08:39.078Z,14.40
2022-10-14T04:11:20.167Z,16.30
2022-10-14T04:13:50.140Z,13.00
2022-10-14T04:16:18.115Z,18.03
2022-10-14T04:19:08.522Z,15.27
2022-10-14T04:21:37.838Z,13.03
2022-10-14T04:24:09.847Z,13.83
2022-10-14T04:26:51.080Z,14.40
2022-10-14T04:29:27.001Z,20.57
2022-10-14T04:32:02.593Z,16.73
2022-10-14T04:34:32.790Z,14.93
2022-10-14T04:37:02.145Z,15.40
2022-10-14T04:39:50.394Z,16.20
2022-10-14T04:42:18.712Z,23.57
2022-10-14T04:44:50.588Z,35.13
2022-10-14T04:47:25.150Z,27.40
2022-10-14T04:49:58.613Z,17.40
2022-10-14T04:52:30.595Z,21.97
2022-10-14T04:55:05.081Z,14.87
2022-10-14T04:57:43.087Z,14.10
2022-10-14T05:00:13.421Z,15.20
2022-10-14T05:02:54.636Z,14.37
2022-10-14T05:05:29.458Z,20.40
2022-10-14T05:08:00.847Z,17.47
2022-10-14T05:10:37.832Z,15.07
2022-10-14T05:13:09.509Z,15.50
2022-10-14T05:15:46.240Z,16.00
2022-10-14T05:18:14.023Z,42.47
2022-10-14T05:21:03.079Z,81.37
2022-10-14T05:23:50.227Z,31.93
2022-10-14T05:26:18.663Z,19.60
2022-10-14T05:28:46.871Z,15.73
2022-10-14T05:31:14.887Z,16.47
2022-10-14T05:33:53.116Z,16.43
2022-10-14T05:36:21.705Z,16.27
2022-10-14T05:38:55.669Z,18.50
2022-10-14T05:41:24.278Z,17.50
2022-10-14T05:43:52.462Z,17.97
2022-10-14T05:46:21.285Z,17.17
2022-10-14T05:48:54.837Z,51.57
2022-10-14T05:51:25.494Z,34.17
2022-10-14T05:54:02.243Z,22.07
2022-10-14T05:56:30.908Z,22.60
2022-10-14T05:58:58.882Z,22.07
2022-10-14T06:01:27.996Z,16.83
2022-10-14T06:03:55.867Z,18.57
2022-10-14T06:06:28.716Z,23.83
2022-10-14T06:08:57.510Z,21.63
2022-10-14T06:11:26.686Z,22.43
2022-10-14T06:13:54.596Z,16.17
2022-10-14T06:16:22.550Z,17.43
2022-10-14T06:18:54.250Z,23.07
2022-10-14T06:21:23.546Z,20.30
2022-10-14T06:23:51.620Z,18.27
2022-10-14T06:26:19.789Z,16.23
2022-10-14T06:28:51.502Z,21.33
2022-10-14T06:31:19.524Z,15.40
2022-10-14T06:33:49.560Z,17.47
2022-10-14T06:36:17.624Z,21.13
2022-10-14T06:38:45.621Z,15.73
2022-10-14T06:41:13.499Z,17.53
2022-10-14T06:43:41.620Z,18.13
2022-10-14T06:46:10.824Z,20.13
2022-10-14T06:48:38.943Z,15.63
2022-10-14T06:51:07.058Z,17.73
2022-10-14T06:53:35.126Z,14.00
2022-10-14T06:56:07.709Z,15.83
2022-10-14T06:58:35.618Z,22.33
2022-10-14T07:01:04.163Z,13.00
2022-10-14T07:03:36.343Z,14.27
2022-10-14T07:06:04.832Z,14.53
2022-10-14T07:08:32.775Z,14.37
2022-10-14T07:11:00.953Z,12.40
2022-10-14T07:13:30.347Z,14.40
2022-10-14T07:15:58.174Z,16.80
2022-10-14T07:18:26.383Z,12.37
2022-10-14T07:20:56.026Z,15.97
2022-10-14T07:23:24.275Z,14.67
2022-10-14T07:25:57.179Z,14.80
2022-10-14T07:28:25.701Z,11.60
2022-10-14T07:31:01.897Z,12.60
2022-10-14T07:33:30.050Z,11.60
2022-10-14T07:36:02.226Z,13.20
2022-10-14T07:38:33.354Z,13.43
2022-10-14T07:41:04.041Z,16.63
2022-10-14T07:43:34.329Z,14.53
2022-10-14T07:46:05.150Z,17.07
2022-10-14T07:48:45.365Z,11.67
2022-10-14T07:51:24.194Z,12.83
2022-10-14T07:53:53.243Z,17.20
2022-10-14T07:56:22.418Z,11.73
2022-10-14T07:58:50.804Z,14.10
2022-10-14T08:01:21.677Z,13.53
2022-10-14T08:03:49.831Z,12.57
2022-10-14T08:06:17.998Z,11.30
2022-10-14T08:08:47.408Z,10.37
2022-10-14T08:11:17.751Z,12.33
2022-10-14T08:13:46.709Z,14.13
2022-10-14T08:16:18.158Z,12.40
2022-10-14T08:18:47.674Z,15.43
2022-10-14T08:21:16.011Z,11.00
2022-10-14T08:23:44.420Z,11.43
2022-10-14T08:26:21.051Z,12.53
2022-10-14T08:28:49.698Z,15.77
2022-10-14T08:31:17.951Z,8.20
2022-10-14T08:33:45.913Z,13.07
2022-10-14T08:36:14.268Z,14.17
2022-10-14T08:38:42.763Z,12.83
2022-10-14T08:41:27.236Z,21.40
2022-10-14T08:44:12.265Z,15.73
2022-10-14T08:46:45.751Z,19.23
2022-10-14T08:49:23.250Z,12.03
2022-10-14T08:51:56.853Z,12.60
2022-10-14T08:54:33.145Z,13.17
2022-10-14T08:57:06.599Z,15.60
2022-10-14T08:59:40.245Z,13.53
2022-10-14T09:02:21.366Z,19.90
2022-10-14T09:04:49.761Z,18.43
2022-10-14T09:07:20.265Z,13.03
2022-10-14T09:09:51.428Z,15.60
2022-10-14T09:12:26.743Z,13.60
2022-10-14T09:15:02.438Z,16.30
2022-10-14T09:17:37.876Z,18.00
2022-10-14T09:20:17.878Z,15.77
2022-10-14T09:22:46.493Z,12.47
2022-10-14T09:25:16.683Z,19.20
2022-10-14T09:30:19.809Z,13.97
2022-10-14T09:32:51.004Z,14.43
2022-10-14T09:35:25.126Z,17.40
2022-10-14T09:37:54.008Z,11.17
2022-10-14T09:40:29.785Z,15.70
2022-10-14T09:43:06.514Z,23.53
2022-10-14T09:45:50.041Z,13.80
2022-10-14T09:48:20.774Z,15.17
2022-10-14T09:50:54.314Z,18.50
2022-10-14T09:53:29.338Z,14.33
2022-10-14T09:55:59.481Z,15.77
2022-10-14T09:58:36.633Z,14.93
2022-10-14T10:01:12.706Z,14.40
2022-10-14T10:03:41.142Z,14.33
2022-10-14T10:06:11.672Z,17.57
2022-10-14T10:08:42.099Z,15.60
2022-10-14T10:11:13.891Z,16.83
2022-10-14T10:13:45.432Z,18.67
2022-10-14T10:16:22.970Z,10.50
2022-10-14T10:18:52.497Z,19.70
2022-10-14T10:21:24.713Z,15.30
2022-10-14T10:23:58.303Z,12.83
2022-10-14T10:26:30.550Z,13.37
2022-10-14T10:29:02.706Z,11.33
2022-10-14T10:31:53.359Z,14.90
2022-10-14T10:34:53.597Z,9.77
2022-10-14T10:37:28.282Z,11.93
2022-10-14T10:40:20.027Z,11.63
2022-10-14T10:42:59.408Z,13.10
2022-10-14T10:45:51.138Z,8.27
2022-10-14T10:48:26.056Z,9.30
2022-10-14T10:51:00.611Z,11.60
2022-10-14T10:53:40.122Z,9.93
2022-10-14T10:56:18.604Z,14.40
2022-10-14T10:59:07.200Z,16.67
2022-10-14T11:01:44.588Z,14.33
2022-10-14T11:04:28.475Z,8.90
2022-10-14T11:07:27.173Z,14.10
2022-10-14T11:10:25.683Z,9.93
2022-10-14T11:13:01.188Z,15.13
2022-10-14T11:15:43.282Z,9.63
2022-10-14T11:18:20.668Z,14.13
2022-10-14T11:21:05.162Z,8.33
2022-10-14T11:23:47.631Z,10.60
2022-10-14T11:26:27.471Z,8.23
2022-10-14T11:29:09.831Z,10.50
2022-10-14T11:31:45.859Z,8.30
2022-10-14T11:34:28.832Z,10.87
2022-10-14T11:37:07.998Z,8.13
2022-10-14T11:39:43.321Z,9.73
2022-10-14T11:42:31.470Z,15.37
2022-10-14T11:45:14.201Z,16.17
2022-10-14T11:47:47.887Z,8.53
2022-10-14T11:50:21.373Z,9.50
2022-10-14T11:52:55.579Z,14.77
2022-10-14T11:55:24.823Z,7.00
2022-10-14T11:57:58.816Z,8.73
2022-10-14T12:00:30.544Z,8.37
2022-10-14T12:03:25.138Z,10.50
2022-10-14T12:06:02.103Z,12.73
2022-10-14T12:08:35.959Z,8.17
2022-10-14T12:11:07.890Z,10.33
2022-10-14T12:13:41.589Z,7.53
2022-10-14T12:16:14.479Z,8.10
2022-10-14T12:18:43.897Z,9.70
2022-10-14T12:21:20.411Z,5.67
2022-10-14T12:23:51.689Z,7.50
2022-10-14T12:26:41.206Z,7.37
2022-10-14T12:29:14.273Z,9.13
2022-10-14T12:31:42.332Z,10.00
2022-10-14T12:34:26.056Z,9.20
2022-10-14T12:36:55.346Z,8.80
2022-10-14T12:39:31.967Z,6.73
2022-10-14T12:42:03.205Z,9.43
2022-10-14T12:44:36.419Z,4.90
2022-10-14T12:47:05.709Z,4.40
2022-10-14T12:49:37.846Z,6.10
2022-10-14T12:52:09.805Z,4.77
2022-10-14T12:54:46.085Z,5.07
2022-10-14T12:57:27.061Z,5.30
2022-10-14T12:59:57.209Z,5.13
2022-10-14T13:02:33.352Z,6.73
2022-10-14T13:05:04.788Z,5.60
2022-10-14T13:07:41.743Z,6.60
2022-10-14T13:10:47.275Z,5.03
2022-10-14T13:13:52.263Z,8.33
2022-10-14T13:17:06.140Z,11.60
2022-10-14T13:19:44.589Z,8.60
2022-10-14T13:22:41.995Z,6.90
2022-10-14T13:25:28.852Z,7.30
2022-10-14T13:28:19.338Z,6.80
2022-10-14T13:30:57.074Z,6.07
2022-10-14T13:33:32.549Z,4.77
2022-10-14T13:36:12.586Z,5.53
2022-10-14T13:38:47.860Z,4.23
2022-10-14T13:41:28.328Z,4.10
2022-10-14T13:44:00.735Z,7.13
2022-10-14T13:46:35.109Z,8.70
2022-10-14T13:49:09.499Z,4.70
2022-10-14T13:51:45.856Z,9.23
2022-10-14T13:54:20.890Z,8.23
2022-10-14T13:57:38.210Z,5.20
2022-10-14T14:02:41.935Z,10.27
2022-10-14T14:05:17.045Z,8.73
2022-10-14T14:10:51.563Z,18.13
2022-10-14T14:13:26.459Z,15.33
2022-10-14T14:15:56.109Z,6.87
2022-10-14T14:18:38.203Z,4.53
2022-10-14T14:21:18.248Z,6.77
2022-10-14T14:23:53.224Z,4.60
2022-10-14T14:26:35.244Z,7.03
2022-10-14T14:29:05.994Z,12.53
2022-10-14T14:32:05.090Z,9.47
2022-10-14T14:34:25.172Z,8.93
2022-10-14T14:37:01.388Z,7.37
2022-10-14T14:39:34.805Z,6.77
2022-10-14T14:42:04.014Z,9.10
2022-10-14T14:44:34.918Z,7.73
2022-10-14T14:47:05.264Z,7.90
2022-10-14T14:49:36.304Z,7.50
2022-10-14T14:52:07.314Z,14.43
2022-10-14T14:54:35.245Z,8.27
2022-10-14T14:57:07.419Z,6.80
2022-10-14T14:59:38.940Z,8.27
2022-10-14T15:02:16.193Z,7.00
2022-10-14T15:04:48.576Z,4.77
2022-10-14T15:07:21.496Z,5.20
2022-10-14T15:09:52.841Z,6.73
2022-10-14T15:12:30.614Z,9.13
2022-10-14T15:14:59.973Z,8.80
2022-10-14T15:17:33.408Z,8.17
2022-10-14T15:20:22.285Z,14.07
2022-10-14T15:22:50.542Z,8.30
2022-10-14T15:25:30.036Z,8.70
2022-10-14T15:28:00.121Z,7.27
2022-10-14T15:30:34.516Z,12.50
2022-10-14T15:33:15.634Z,9.13
2022-10-14T15:36:03.518Z,8.73
2022-10-14T15:40:59.569Z,5.43
2022-10-14T15:43:29.007Z,9.50
2022-10-14T15:46:13.188Z,12.63
2022-10-14T15:48:46.922Z,8.10
2022-10-14T15:51:19.546Z,9.33
2022-10-14T15:53:47.651Z,11.50
2022-10-14T15:56:16.030Z,11.50
2022-10-14T15:58:45.348Z,7.73
2022-10-14T16:01:18.991Z,12.07
2022-10-14T16:03:47.944Z,10.17
2022-10-14T16:06:16.933Z,7.70
2022-10-14T16:08:46.440Z,10.83
2022-10-14T16:11:21.702Z,9.80
2022-10-14T16:13:50.952Z,11.87
2022-10-14T16:16:25.210Z,8.90
2022-10-14T16:18:53.352Z,9.73
2022-10-14T16:21:21.113Z,9.03
2022-10-14T16:23:48.989Z,11.50
2022-10-14T16:26:16.734Z,9.03
2022-10-14T16:28:44.728Z,14.00
2022-10-14T16:31:15.936Z,7.90
2022-10-14T16:33:45.802Z,10.70
2022-10-14T16:36:15.903Z,7.50
2022-10-14T16:38:43.849Z,9.77
2022-10-14T16:41:12.396Z,14.83
2022-10-14T16:43:40.499Z,8.83
2022-10-14T16:46:11.736Z,9.40
2022-10-14T16:48:42.916Z,9.33
2022-10-14T16:51:10.996Z,10.57
2022-10-14T16:53:41.818Z,9.23
2022-10-14T16:56:27.033Z,8.37
2022-10-14T16:58:55.122Z,9.47
2022-10-14T17:01:23.603Z,10.97
2022-10-14T17:03:53.005Z,8.00
2022-10-14T17:06:23.987Z,8.70
2022-10-14T17:08:52.445Z,9.17
2022-10-14T17:11:21.131Z,9.57
2022-10-14T17:13:52.388Z,11.57
2022-10-14T17:16:23.413Z,11.80
2022-10-14T17:18:53.002Z,13.27
2022-10-14T17:21:21.106Z,8.90
2022-10-14T17:23:52.029Z,11.97
2022-10-14T17:26:20.871Z,10.83
2022-10-14T17:28:49.785Z,13.27
2022-10-14T17:31:20.124Z,10.17
2022-10-14T17:33:51.006Z,10.90
2022-10-14T17:36:22.904Z,8.77
2022-10-14T17:38:52.564Z,10.07
2022-10-14T17:41:20.763Z,7.90
2022-10-14T17:43:50.340Z,16.20
2022-10-14T17:46:21.078Z,9.03
2022-10-14T17:48:51.866Z,9.17
2022-10-14T17:51:25.445Z,8.87
2022-10-14T17:53:55.076Z,11.40
2022-10-14T17:56:23.260Z,10.80
2022-10-14T17:58:55.385Z,8.63
2022-10-14T18:01:37.090Z,9.70
2022-10-14T18:04:06.818Z,9.63
2022-10-14T18:06:37.391Z,8.90
2022-10-14T18:09:08.000Z,9.90
2022-10-14T18:12:07.122Z,8.53
2022-10-14T18:14:28.478Z,14.03
2022-10-14T18:16:56.361Z,12.10
2022-10-14T18:19:24.237Z,9.10
2022-10-14T18:21:53.462Z,10.10
2022-10-14T18:24:21.272Z,12.07
2022-10-14T18:26:50.573Z,14.00
2022-10-14T18:29:18.633Z,10.10
2022-10-14T18:31:46.691Z,8.40
2022-10-14T18:34:14.489Z,8.80
2022-10-14T18:36:42.466Z,9.30
2022-10-14T18:39:12.849Z,9.03
2022-10-14T18:41:59.568Z,9.47
2022-10-14T18:44:27.470Z,8.17
2022-10-14T18:46:56.875Z,7.83
2022-10-14T18:49:24.967Z,9.43
2022-10-14T18:51:54.960Z,12.00
2022-10-14T18:54:24.844Z,8.27
2022-10-14T18:56:53.349Z,17.43
2022-10-14T18:59:23.273Z,11.90
2022-10-14T19:01:55.200Z,10.27
2022-10-14T19:04:26.688Z,7.63
2022-10-14T19:06:54.731Z,10.20
2022-10-14T19:09:29.379Z,9.00
2022-10-14T19:11:58.978Z,10.07
2022-10-14T19:14:28.425Z,8.00
2022-10-14T19:16:56.499Z,11.70
2022-10-14T19:19:24.306Z,10.07
2022-10-14T19:21:54.194Z,7.77
2022-10-14T19:24:22.396Z,8.60
2022-10-14T19:26:51.599Z,9.30
2022-10-14T19:29:19.539Z,10.10
2022-10-14T19:31:47.440Z,7.23
2022-10-14T19:34:16.987Z,8.83
2022-10-14T19:36:47.238Z,8.07
2022-10-14T19:39:18.785Z,11.13
2022-10-14T19:41:47.333Z,6.73
2022-10-14T19:44:17.250Z,8.47
2022-10-14T19:46:45.853Z,9.60
2022-10-14T19:49:15.550Z,13.43
2022-10-14T19:51:43.870Z,7.23
2022-10-14T19:54:13.599Z,6.57
2022-10-14T19:56:41.761Z,8.53
2022-10-14T19:59:13.577Z,12.00
2022-10-14T20:01:42.871Z,4.90
2022-10-14T20:04:10.934Z,5.03
2022-10-14T20:06:39.955Z,4.80
2022-10-14T20:09:08.778Z,3.90
2022-10-14T20:11:36.778Z,6.53
2022-10-14T20:14:04.704Z,5.07
2022-10-14T20:16:32.460Z,3.57
2022-10-14T20:19:01.918Z,4.43
2022-10-14T20:21:30.943Z,3.20
2022-10-14T20:23:59.652Z,6.43
2022-10-14T20:26:27.691Z,5.00
2022-10-14T20:28:55.883Z,3.27
2022-10-14T20:31:25.409Z,9.30
2022-10-14T20:33:53.421Z,5.77
2022-10-14T20:36:23.574Z,4.03
2022-10-14T20:38:53.451Z,2.67
2022-10-14T20:41:25.415Z,3.00
2022-10-14T20:43:55.048Z,4.07
2022-10-14T20:46:24.679Z,3.30
2022-10-14T20:48:55.574Z,4.43
2022-10-14T20:51:25.393Z,1.80
2022-10-14T20:54:00.455Z,4.23
2022-10-14T20:56:32.266Z,2.37
2022-10-14T20:59:01.800Z,2.50
2022-10-14T21:01:30.706Z,2.40
2022-10-14T21:04:01.972Z,2.60
2022-10-14T21:06:32.506Z,3.60
2022-10-14T21:09:00.868Z,3.00
2022-10-14T21:11:29.389Z,7.60
2022-10-14T21:13:59.487Z,5.70
2022-10-14T21:16:29.262Z,4.53
2022-10-14T21:18:59.348Z,4.43
2022-10-14T21:21:30.253Z,3.63
2022-10-14T21:23:59.902Z,2.97
2022-10-14T21:26:27.988Z,3.30
2022-10-14T21:28:55.783Z,2.80
2022-10-14T21:31:24.260Z,2.53
2022-10-14T21:33:59.878Z,4.00
2022-10-14T21:36:31.036Z,2.90
2022-10-14T21:39:01.098Z,3.53
2022-10-14T21:41:29.195Z,4.57
2022-10-14T21:44:01.850Z,3.50
2022-10-14T21:46:29.786Z,3.70
2022-10-14T21:48:58.790Z,6.13
2022-10-14T21:51:31.050Z,3.30
2022-10-14T21:54:00.240Z,3.80
2022-10-14T21:56:28.686Z,3.57
2022-10-14T21:58:56.615Z,3.23
2022-10-14T22:01:27.142Z,3.50
2022-10-14T22:03:56.302Z,2.77
2022-10-14T22:06:27.119Z,7.00
2022-10-14T22:08:56.163Z,3.37
2022-10-14T22:11:27.742Z,3.57
2022-10-14T22:13:57.485Z,3.97
2022-10-14T22:16:26.428Z,5.97
2022-10-14T22:18:54.533Z,16.93
2022-10-14T22:21:24.990Z,3.83
2022-10-14T22:23:55.175Z,3.70
2022-10-14T22:26:26.541Z,3.87
2022-10-14T22:28:58.906Z,3.37
2022-10-14T22:31:27.737Z,4.77
2022-10-14T22:33:55.501Z,5.47
2022-10-14T22:36:30.233Z,3.17
2022-10-14T22:38:59.410Z,2.90
2022-10-14T22:41:34.882Z,2.93
2022-10-14T22:44:05.097Z,5.30
2022-10-14T22:46:34.769Z,3.57
2022-10-14T22:49:02.653Z,11.73
2022-10-14T22:51:32.070Z,3.03
2022-10-14T22:54:00.432Z,2.30
2022-10-14T22:56:36.917Z,2.83
2022-10-14T22:59:07.107Z,4.77
2022-10-14T23:01:35.595Z,2.47
2022-10-14T23:04:04.200Z,4.80
2022-10-14T23:06:33.038Z,3.57
2022-10-14T23:09:01.342Z,4.33
2022-10-14T23:11:32.237Z,2.40
2022-10-14T23:14:02.857Z,2.40
2022-10-14T23:16:34.233Z,2.03
2022-10-14T23:19:04.236Z,4.60
2022-10-14T23:21:36.281Z,2.10
2022-10-14T23:24:06.912Z,2.70
2022-10-14T23:26:37.001Z,7.23
2022-10-14T23:29:11.223Z,2.67
2022-10-14T23:31:40.490Z,5.80
2022-10-14T23:34:12.780Z,6.47
2022-10-14T23:36:40.932Z,2.17
2022-10-14T23:39:08.944Z,3.00
2022-10-14T23:41:38.320Z,5.77
2022-10-14T23:44:06.105Z,4.47
2022-10-14T23:46:33.956Z,7.90
2022-10-14T23:49:21.519Z,3.67
2022-10-14T23:51:52.338Z,3.33
2022-10-14T23:54:20.170Z,3.33
2022-10-14T23:56:49.397Z,9.20
2022-10-14T23:59:17.744Z,2.70
